Time;durP1;ratioP1;P1;durP2;ratioP2;P2;SDS_P1;SDS_P2;PMS_P1;PMS_P2;Temp;Humidity;BMP_temperature;BMP_pressure;BME280_temperature;BME280_humidity;BME280_pressure;Samples;Min_cycle;Max_cycle;Signal;HPM_P1;HPM_P2
2021/11/05 00:00:32;;;;;;;0.40;0.30;;;;;;;7.23;100.00;100168.50;5032998;28;20498;-72
2021/11/05 00:02:59;;;;;;;0.40;0.30;;;;;;;7.18;100.00;100165.88;5032898;28;20459;-72
2021/11/05 00:05:27;;;;;;;0.40;0.30;;;;;;;7.12;100.00;100183.94;5032823;28;20467;-72
2021/11/05 00:07:53;;;;;;;0.40;0.30;;;;;;;7.07;100.00;100190.19;5033019;28;20443;-71
2021/11/05 00:10:20;;;;;;;0.40;0.23;;;;;;;7.08;100.00;100188.31;5032833;28;20447;-72
2021/11/05 00:12:48;;;;;;;0.40;0.30;;;;;;;7.11;100.00;100195.81;5032783;28;20487;-72
2021/11/05 00:15:15;;;;;;;0.40;0.30;;;;;;;7.14;100.00;100197.16;5033244;28;20505;-71
2021/11/05 00:17:42;;;;;;;0.40;0.30;;;;;;;7.08;100.00;100204.47;5036501;28;20964;-72
2021/11/05 00:20:09;;;;;;;1.87;1.70;;;;;;;7.06;100.00;100204.75;5036682;28;20450;-72
2021/11/05 00:22:36;;;;;;;0.40;0.27;;;;;;;7.05;100.00;100216.63;5036654;28;20472;-72
2021/11/05 00:25:03;;;;;;;0.40;0.30;;;;;;;7.00;100.00;100213.19;5036558;28;20467;-72
2021/11/05 00:27:29;;;;;;;0.40;0.30;;;;;;;6.98;100.00;100224.25;5036252;28;20941;-72
2021/11/05 00:29:57;;;;;;;0.40;0.30;;;;;;;6.94;100.00;100219.72;5036542;28;20443;-72
2021/11/05 00:32:23;;;;;;;0.40;0.30;;;;;;;6.98;100.00;100223.44;5036388;28;20494;-71
2021/11/05 00:34:50;;;;;;;0.40;0.30;;;;;;;6.98;100.00;100224.25;5036652;28;20466;-71
2021/11/05 00:37:16;;;;;;;0.40;0.20;;;;;;;6.94;100.00;100227.78;5036399;28;20457;-71
2021/11/05 00:39:43;;;;;;;0.40;0.30;;;;;;;6.95;100.00;100237.47;5036329;28;20474;-72
2021/11/05 00:42:09;;;;;;;0.40;0.30;;;;;;;6.98;100.00;100247.66;5036260;28;20500;-72
2021/11/05 00:44:36;;;;;;;0.97;0.97;;;;;;;6.98;100.00;100247.66;5036187;28;20450;-72
2021/11/05 00:47:04;;;;;;;0.40;0.27;;;;;;;6.98;100.00;100248.47;5035960;28;20956;-72
2021/11/05 00:49:30;;;;;;;0.40;0.30;;;;;;;7.00;100.00;100248.22;5035882;28;20961;-72
2021/11/05 00:51:57;;;;;;;0.40;0.20;;;;;;;7.02;100.00;100257.59;5036105;28;20482;-72
2021/11/05 00:54:23;;;;;;;0.40;0.20;;;;;;;7.01;100.00;100269.44;5036075;28;20442;-71
2021/11/05 00:56:49;;;;;;;0.40;0.20;;;;;;;7.02;100.00;100267.56;5035981;28;20478;-72
2021/11/05 00:59:16;;;;;;;0.40;0.20;;;;;;;7.06;100.00;100268.59;5035990;28;20443;-72
2021/11/05 01:01:42;;;;;;;0.40;0.30;;;;;;;7.01;100.00;100266.75;5035974;28;20435;-71
2021/11/05 01:04:10;;;;;;;0.40;0.30;;;;;;;7.05;100.00;100275.06;5035849;28;20450;-71
2021/11/05 01:06:37;;;;;;;0.40;0.20;;;;;;;7.02;100.00;100270.25;5035753;28;20466;-71
2021/11/05 01:09:04;;;;;;;0.40;0.30;;;;;;;7.06;100.00;100276.66;5035493;28;20501;-71
2021/11/05 01:11:31;;;;;;;0.40;0.30;;;;;;;7.01;100.00;100274.84;5035697;28;20494;-71
2021/11/05 01:13:58;;;;;;;0.40;0.30;;;;;;;7.03;100.00;100277.22;5035741;28;20450;-71
2021/11/05 01:16:25;;;;;;;0.40;0.30;;;;;;;7.05;100.00;100277.78;5035640;28;20463;-71
2021/11/05 01:18:52;;;;;;;0.40;0.20;;;;;;;7.07;100.00;100286.34;5035296;28;20447;-72
2021/11/05 01:21:19;;;;;;;0.40;0.20;;;;;;;7.10;100.00;100291.19;5035572;28;20450;-71
2021/11/05 01:23:46;;;;;;;0.40;0.30;;;;;;;7.08;100.00;100288.78;5035232;28;20435;-72
2021/11/05 01:26:12;;;;;;;0.40;0.30;;;;;;;7.11;100.00;100295.47;5035397;28;20471;-71
2021/11/05 01:28:39;;;;;;;0.40;0.30;;;;;;;7.12;100.00;100307.84;5034371;28;20470;-71
2021/11/05 01:31:06;;;;;;;0.40;0.30;;;;;;;7.14;100.00;100305.69;5035311;28;20447;-71
2021/11/05 01:33:33;;;;;;;0.40;0.30;;;;;;;7.14;100.00;100316.47;5035315;28;20443;-72
2021/11/05 01:35:59;;;;;;;0.40;0.30;;;;;;;7.15;100.00;100322.63;5034995;28;20920;-72
2021/11/05 01:38:27;;;;;;;0.40;0.30;;;;;;;7.13;100.00;100333.72;5035326;28;20833;-72
2021/11/05 01:40:54;;;;;;;0.40;0.30;;;;;;;7.10;100.00;100331.56;5035167;28;20451;-72
2021/11/05 01:43:20;;;;;;;0.40;0.30;;;;;;;7.11;100.00;100332.38;5035180;28;20447;-72
2021/11/05 01:45:48;;;;;;;0.40;0.20;;;;;;;7.11;100.00;100338.56;5035086;28;20463;-72
2021/11/05 01:48:14;;;;;;;0.40;0.30;;;;;;;7.12;100.00;100348.25;5035039;28;20443;-71
2021/11/05 01:50:41;;;;;;;0.40;0.30;;;;;;;7.12;100.00;100350.94;5035012;28;20570;-72
2021/11/05 01:53:08;;;;;;;0.40;0.30;;;;;;;7.12;100.00;100350.13;5034902;28;20857;-71
2021/11/05 01:55:36;;;;;;;0.40;0.30;;;;;;;7.12;100.00;100353.63;5034605;28;20486;-71
2021/11/05 01:58:02;;;;;;;0.40;0.30;;;;;;;7.16;100.00;100362.75;5034615;28;20940;-71
2021/11/05 02:00:31;;;;;;;0.40;0.20;;;;;;;7.15;100.00;100371.91;5034868;28;20442;-71
2021/11/05 02:02:58;;;;;;;0.40;0.20;;;;;;;7.14;100.00;100375.72;5034785;28;20443;-71
2021/11/05 02:05:24;;;;;;;0.40;0.27;;;;;;;7.12;100.00;100379.75;5034694;28;20471;-71
2021/11/05 02:07:53;;;;;;;0.40;0.30;;;;;;;7.08;100.00;100383.03;5034396;28;20937;-72
2021/11/05 02:10:21;;;;;;;0.40;0.30;;;;;;;7.06;100.00;100385.19;5034634;28;20451;-72
2021/11/05 02:12:50;;;;;;;0.40;0.30;;;;;;;7.08;100.00;100383.03;5034493;28;20486;-72
2021/11/05 02:15:17;;;;;;;0.40;0.30;;;;;;;7.08;100.00;100385.72;5034516;28;20478;-71
2021/11/05 02:17:46;;;;;;;0.40;0.30;;;;;;;7.11;100.00;100376.25;5034519;28;20443;-71
2021/11/05 02:20:15;;;;;;;0.40;0.20;;;;;;;7.13;100.00;100381.34;5034447;28;20857;-72
2021/11/05 02:22:43;;;;;;;0.40;0.30;;;;;;;7.11;100.00;100389.72;5034343;28;20439;-72
2021/11/05 02:25:10;;;;;;;0.40;0.30;;;;;;;7.17;100.00;100390.47;5034287;28;20473;-72
2021/11/05 02:27:37;;;;;;;0.40;0.23;;;;;;;7.22;100.00;100403.94;5034328;28;20513;-71
2021/11/05 02:30:08;;;;;;;0.60;0.50;;;;;;;7.24;100.00;100402.53;5034453;28;20448;-71
2021/11/05 02:32:35;;;;;;;0.40;0.30;;;;;;;7.26;100.00;100400.38;5034217;28;20474;-71
2021/11/05 02:35:02;;;;;;;0.40;0.30;;;;;;;7.32;100.00;100411.91;5034104;28;20846;-71
2021/11/05 02:37:28;;;;;;;0.40;0.23;;;;;;;7.32;100.00;100418.09;5034152;28;20454;-71
2021/11/05 02:39:56;;;;;;;0.40;0.30;;;;;;;7.36;100.00;100422.94;5033861;28;20477;-71
2021/11/05 02:42:23;;;;;;;0.40;0.20;;;;;;;7.36;100.00;100428.31;5034059;28;20442;-72
2021/11/05 02:44:50;;;;;;;0.40;0.30;;;;;;;7.39;100.00;100430.44;5033632;28;20998;-71
2021/11/05 02:47:18;;;;;;;0.40;0.30;;;;;;;7.42;100.00;100435.25;5033907;28;20450;-71
2021/11/05 02:49:45;;;;;;;0.40;0.20;;;;;;;7.44;100.00;100439.28;5033954;28;20537;-71
2021/11/05 02:52:13;;;;;;;0.40;0.20;;;;;;;7.44;100.00;100444.69;5033697;28;20893;-71
2021/11/05 02:54:39;;;;;;;0.40;0.27;;;;;;;7.48;100.00;100450.28;5033378;28;20455;-72
2021/11/05 02:57:08;;;;;;;4.63;4.33;;;;;;;7.49;100.00;100451.91;5033802;28;20439;-72
2021/11/05 02:59:35;;;;;;;0.40;0.30;;;;;;;7.53;100.00;100450.25;5033757;28;20518;-73
2021/11/05 03:02:02;;;;;;;0.40;0.30;;;;;;;7.54;100.00;100455.34;5033678;28;20435;-73
2021/11/05 03:04:29;;;;;;;0.40;0.27;;;;;;;7.55;100.00;100458.84;5033266;28;20967;-72
2021/11/05 03:07:00;;;;;;;0.40;0.20;;;;;;;7.55;100.00;100464.25;5033452;28;20443;-72
2021/11/05 03:09:31;;;;;;;0.40;0.30;;;;;;;7.54;100.00;100459.94;5033685;28;20475;-73
2021/11/05 03:11:58;;;;;;;1.40;1.30;;;;;;;7.54;100.00;100471.53;5033514;28;20471;-73
2021/11/05 03:14:26;;;;;;;0.40;0.30;;;;;;;7.56;100.00;100484.72;5033582;28;20465;-72
2021/11/05 03:16:53;;;;;;;0.40;0.30;;;;;;;7.55;100.00;100477.72;5033411;28;20450;-72
2021/11/05 03:19:19;;;;;;;0.40;0.20;;;;;;;7.55;100.00;100488.50;5033052;28;20937;-72
2021/11/05 03:21:46;;;;;;;0.40;0.23;;;;;;;7.57;100.00;100497.94;5033304;28;20799;-72
2021/11/05 03:24:13;;;;;;;0.40;0.30;;;;;;;7.54;100.00;100492.28;5033059;28;20960;-72
2021/11/05 03:26:39;;;;;;;0.40;0.23;;;;;;;7.59;100.00;100494.94;5033275;28;20545;-72
2021/11/05 03:29:06;;;;;;;0.40;0.23;;;;;;;7.65;100.00;100501.88;5033317;28;20497;-72
2021/11/05 03:31:34;;;;;;;0.40;0.30;;;;;;;7.67;100.00;100507.81;5033334;28;20454;-72
2021/11/05 03:34:01;;;;;;;0.40;0.30;;;;;;;7.66;100.00;100510.78;5033275;28;20482;-72
2021/11/05 03:36:28;;;;;;;0.40;0.30;;;;;;;7.70;100.00;100519.91;5033397;28;20463;-72
2021/11/05 03:38:55;;;;;;;0.40;0.30;;;;;;;7.71;100.00;100524.22;5033406;28;20448;-72
2021/11/05 03:41:22;;;;;;;0.40;0.30;;;;;;;7.72;100.00;100534.72;5033182;28;20439;-72
2021/11/05 03:43:49;;;;;;;0.40;0.30;;;;;;;7.71;100.00;100533.13;5032883;28;20941;-71
2021/11/05 03:46:15;;;;;;;0.40;0.20;;;;;;;7.73;100.00;100538.22;5033045;28;20455;-71
2021/11/05 03:48:43;;;;;;;0.40;0.30;;;;;;;7.70;100.00;100542.28;5033111;28;20450;-72
2021/11/05 03:51:11;;;;;;;0.40;0.30;;;;;;;7.68;100.00;100547.16;5034752;28;20951;-72
2021/11/05 03:53:38;;;;;;;0.40;0.30;;;;;;;7.72;100.00;100548.19;5036877;28;20996;-71
2021/11/05 03:56:05;;;;;;;0.40;0.20;;;;;;;7.71;100.00;100551.19;5036844;28;20475;-71
2021/11/05 03:58:32;;;;;;;0.40;0.30;;;;;;;7.74;100.00;100550.59;5037106;28;20443;-72
2021/11/05 04:00:58;;;;;;;0.40;0.30;;;;;;;7.73;100.00;100555.19;5037077;28;20443;-72
2021/11/05 04:03:25;;;;;;;0.40;0.30;;;;;;;7.75;100.00;100554.94;5037015;28;20439;-72
2021/11/05 04:05:53;;;;;;;0.40;0.23;;;;;;;7.74;100.00;100558.69;5036916;28;20500;-72
2021/11/05 04:08:19;;;;;;;0.40;0.30;;;;;;;7.70;100.00;100565.72;5036917;28;20439;-72
2021/11/05 04:10:47;;;;;;;0.40;0.20;;;;;;;7.73;100.00;100559.78;5036894;28;20447;-72
2021/11/05 04:13:13;;;;;;;0.40;0.30;;;;;;;7.73;100.00;100567.88;5036702;28;20478;-72
2021/11/05 04:15:40;;;;;;;0.40;0.20;;;;;;;7.74;100.00;100575.66;5036696;28;20459;-72
2021/11/05 04:18:06;;;;;;;0.50;0.40;;;;;;;7.75;100.00;100581.88;5036686;28;20447;-72
2021/11/05 04:20:34;;;;;;;0.40;0.27;;;;;;;7.74;100.00;100583.75;5036719;28;20438;-72
2021/11/05 04:23:05;;;;;;;0.40;0.30;;;;;;;7.74;100.00;100581.06;5036660;28;20442;-71
2021/11/05 04:25:32;;;;;;;0.40;0.30;;;;;;;7.71;100.00;100589.72;5036557;28;20845;-72
2021/11/05 04:27:59;;;;;;;0.40;0.20;;;;;;;7.75;100.00;100590.78;5036625;28;20490;-71
2021/11/05 04:30:25;;;;;;;0.40;0.30;;;;;;;7.76;100.00;100587.00;5036192;28;20944;-72
2021/11/05 04:32:52;;;;;;;0.40;0.30;;;;;;;7.76;100.00;100597.78;5036407;28;20555;-72
2021/11/05 04:35:18;;;;;;;0.40;0.27;;;;;;;7.74;100.00;100605.31;5035987;28;20995;-72
2021/11/05 04:37:44;;;;;;;0.40;0.30;;;;;;;7.79;100.00;100602.63;5036377;28;20451;-72
2021/11/05 04:40:12;;;;;;;0.40;0.27;;;;;;;7.81;100.00;100608.50;5036632;28;20447;-72
2021/11/05 04:42:39;;;;;;;0.40;0.30;;;;;;;7.82;100.00;100606.63;5036233;28;20451;-72
2021/11/05 04:45:06;;;;;;;0.40;0.30;;;;;;;7.82;100.00;100612.81;5036135;28;20466;-72
2021/11/05 04:47:32;;;;;;;0.40;0.30;;;;;;;7.85;100.00;100616.84;5036097;28;20451;-72
2021/11/05 04:49:59;;;;;;;0.40;0.20;;;;;;;7.87;100.00;100625.44;5036150;28;20450;-72
2021/11/05 04:52:25;;;;;;;0.40;0.27;;;;;;;7.90;100.00;100629.50;5036025;28;20478;-72
2021/11/05 04:54:52;;;;;;;0.40;0.30;;;;;;;7.86;100.00;100631.94;5035926;28;20474;-71
2021/11/05 04:57:20;;;;;;;0.40;0.30;;;;;;;7.87;100.00;100636.25;5036096;28;20435;-72
2021/11/05 04:59:47;;;;;;;0.40;0.30;;;;;;;7.86;100.00;100639.22;5035599;28;20952;-72
2021/11/05 05:02:13;;;;;;;0.40;0.30;;;;;;;7.86;100.00;100639.22;5035942;28;20442;-72
2021/11/05 05:04:40;;;;;;;0.40;0.30;;;;;;;7.84;100.00;100642.22;5035869;28;20439;-72
2021/11/05 05:07:06;;;;;;;0.40;0.20;;;;;;;7.86;100.00;100650.00;5035923;28;20447;-72
2021/11/05 05:09:33;;;;;;;0.40;0.30;;;;;;;7.86;100.00;100644.63;5035857;28;20862;-72
2021/11/05 05:11:59;;;;;;;0.40;0.30;;;;;;;7.84;100.00;100653.81;5035772;28;20809;-72
2021/11/05 05:14:27;;;;;;;0.40;0.40;;;;;;;7.81;100.00;100662.44;5036731;28;21000;-72
2021/11/05 05:16:53;;;;;;;0.40;0.30;;;;;;;7.87;100.00;100652.41;5035685;28;20447;-72
2021/11/05 05:19:20;;;;;;;0.40;0.30;;;;;;;7.88;100.00;100648.66;5035372;28;20968;-72
2021/11/05 05:21:47;;;;;;;0.40;0.30;;;;;;;7.89;100.00;100661.03;5035467;28;20546;-72
2021/11/05 05:24:14;;;;;;;0.40;0.27;;;;;;;7.93;100.00;100672.09;5035224;28;20955;-72
2021/11/05 05:26:40;;;;;;;0.40;0.30;;;;;;;7.90;100.00;100673.44;5035495;28;20493;-72
2021/11/05 05:29:07;;;;;;;0.40;0.30;;;;;;;7.94;100.00;100674.50;5035649;28;20447;-72
2021/11/05 05:31:35;;;;;;;0.40;0.20;;;;;;;7.97;100.00;100681.19;5035479;28;20542;-72
2021/11/05 05:34:01;;;;;;;0.40;0.30;;;;;;;7.94;100.00;100684.47;5035268;28;20483;-72
2021/11/05 05:36:28;;;;;;;0.40;0.30;;;;;;;7.95;100.00;100692.28;5035267;28;20467;-71
2021/11/05 05:38:54;;;;;;;0.40;0.20;;;;;;;7.87;100.00;100698.25;5035255;28;20447;-72
2021/11/05 05:41:21;;;;;;;0.40;0.30;;;;;;;7.90;100.00;100707.69;5034924;28;20975;-71
2021/11/05 05:43:47;;;;;;;0.40;0.20;;;;;;;7.92;100.00;100709.00;5035190;28;20439;-70
2021/11/05 05:46:14;;;;;;;0.40;0.30;;;;;;;7.94;100.00;100708.75;5035080;28;20463;-69
2021/11/05 05:48:42;;;;;;;0.40;0.30;;;;;;;7.96;100.00;100715.47;5035075;28;20439;-70
2021/11/05 05:51:08;;;;;;;0.40;0.30;;;;;;;7.97;100.00;100718.97;5034808;28;20509;-72
2021/11/05 05:53:34;;;;;;;0.40;0.30;;;;;;;7.96;100.00;100726.25;5034542;28;20491;-73
2021/11/05 05:56:01;;;;;;;0.40;0.30;;;;;;;7.98;100.00;100731.38;5034105;28;20528;-72
2021/11/05 05:58:27;;;;;;;0.40;0.30;;;;;;;8.01;100.00;100745.13;5034949;28;20454;-72
2021/11/05 06:00:54;;;;;;;0.40;0.20;;;;;;;8.02;100.00;100737.84;5034863;28;20451;-72
2021/11/05 06:03:21;;;;;;;0.40;0.30;;;;;;;8.08;100.00;100744.78;5034820;28;20479;-72
2021/11/05 06:05:48;;;;;;;0.40;0.30;;;;;;;8.11;100.00;100749.63;5034747;28;20467;-71
2021/11/05 06:08:15;;;;;;;0.40;0.30;;;;;;;8.10;100.00;100753.41;5034680;28;20454;-72
2021/11/05 06:10:41;;;;;;;0.40;0.40;;;;;;;8.10;100.00;100761.50;5034652;28;20450;-71
2021/11/05 06:13:08;;;;;;;0.40;0.30;;;;;;;8.07;100.00;100767.47;5034072;28;20566;-72
2021/11/05 06:15:35;;;;;;;0.40;0.30;;;;;;;8.04;100.00;100766.13;5034500;28;20467;-72
2021/11/05 06:18:01;;;;;;;0.40;0.30;;;;;;;8.02;100.00;100773.69;5034534;28;20452;-72
2021/11/05 06:20:28;;;;;;;0.40;0.30;;;;;;;8.07;100.00;100776.38;5034505;28;20513;-72
2021/11/05 06:22:56;;;;;;;0.40;0.30;;;;;;;8.10;100.00;100780.38;5034441;28;20447;-72
2021/11/05 06:25:22;;;;;;;0.40;0.30;;;;;;;8.10;100.00;100783.06;5033930;28;20470;-72
2021/11/05 06:27:49;;;;;;;0.40;0.30;;;;;;;8.14;100.00;100781.44;5033670;28;20965;-72
2021/11/05 06:30:16;;;;;;;0.40;0.30;;;;;;;8.14;100.00;100786.81;5034124;28;20451;-72
2021/11/05 06:32:42;;;;;;;0.50;0.30;;;;;;;8.14;100.00;100789.53;5034460;28;20439;-72
2021/11/05 06:35:10;;;;;;;0.40;0.30;;;;;;;8.16;100.00;100792.75;5033959;28;20476;-73
2021/11/05 06:37:37;;;;;;;0.40;0.30;;;;;;;8.13;100.00;100801.41;5033840;28;20941;-72
2021/11/05 06:40:07;;;;;;;0.40;0.30;;;;;;;8.16;100.00;100806.25;5033921;28;20451;-72
2021/11/05 06:42:34;;;;;;;0.40;0.30;;;;;;;8.15;100.00;100810.03;5034348;28;20905;-72
2021/11/05 06:45:00;;;;;;;0.40;0.30;;;;;;;8.14;100.00;100819.19;5033979;28;20818;-72
2021/11/05 06:47:27;;;;;;;0.40;0.30;;;;;;;8.16;100.00;100840.53;5033990;28;20443;-72
2021/11/05 06:49:53;;;;;;;0.40;0.30;;;;;;;8.18;100.00;100838.34;5033620;28;20945;-73
2021/11/05 06:52:20;;;;;;;0.40;0.30;;;;;;;8.23;100.00;100854.50;5033906;28;20455;-72
2021/11/05 06:54:46;;;;;;;0.40;0.30;;;;;;;8.24;100.00;100856.13;5033778;28;20927;-70
2021/11/05 06:57:14;;;;;;;1.10;1.07;;;;;;;8.26;100.00;100859.34;5033799;28;20431;-73
2021/11/05 06:59:41;;;;;;;0.40;0.30;;;;;;;8.27;100.00;100864.47;5033675;28;20446;-71
2021/11/05 07:02:07;;;;;;;0.40;0.30;;;;;;;8.28;100.00;100870.69;5033688;28;20435;-71
2021/11/05 07:04:34;;;;;;;0.40;0.30;;;;;;;8.32;100.00;100875.25;5033309;28;20450;-71
2021/11/05 07:07:00;;;;;;;0.40;0.30;;;;;;;8.32;100.00;100877.94;5033674;28;20465;-72
2021/11/05 07:09:27;;;;;;;0.73;0.73;;;;;;;8.35;100.00;100884.66;5033632;28;20443;-71
2021/11/05 07:11:53;;;;;;;0.40;0.30;;;;;;;8.35;100.00;100890.06;5033402;28;20538;-72
2021/11/05 07:14:21;;;;;;;0.40;0.20;;;;;;;8.33;100.00;100895.75;5033385;28;20487;-72
2021/11/05 07:16:48;;;;;;;0.40;0.30;;;;;;;8.29;100.00;100913.59;5033402;28;20470;-72
2021/11/05 07:19:14;;;;;;;0.40;0.27;;;;;;;8.28;100.00;100914.66;5033426;28;20455;-72
2021/11/05 07:21:41;;;;;;;0.40;0.30;;;;;;;8.28;100.00;100917.38;5033436;28;20443;-72
2021/11/05 07:24:09;;;;;;;0.40;0.30;;;;;;;8.27;100.00;100929.22;5033363;28;20446;-72
2021/11/05 07:26:39;;;;;;;0.40;0.30;;;;;;;8.26;100.00;100924.91;5032484;28;20467;-72
2021/11/05 07:29:11;;;;;;;0.40;0.30;;;;;;;8.32;100.00;100940.03;5033304;28;20580;-72
2021/11/05 07:31:39;;;;;;;0.40;0.30;;;;;;;8.33;100.00;100944.34;5033028;28;20963;-72
2021/11/05 07:34:06;;;;;;;0.50;0.40;;;;;;;8.35;100.00;100944.84;5032853;28;21002;-72
2021/11/05 07:36:33;;;;;;;0.40;0.30;;;;;;;8.35;100.00;100949.44;5032871;28;20984;-72
2021/11/05 07:38:59;;;;;;;0.40;0.30;;;;;;;8.37;100.00;100952.72;5033455;28;20445;-72
2021/11/05 07:41:26;;;;;;;0.40;0.30;;;;;;;8.39;100.00;100950.53;5032648;28;20447;-72
2021/11/05 07:43:53;;;;;;;0.40;0.30;;;;;;;8.41;100.00;100963.75;5032893;28;20462;-72
2021/11/05 07:46:20;;;;;;;0.40;0.30;;;;;;;8.43;100.00;100972.38;5033036;28;20470;-72
2021/11/05 07:48:48;;;;;;;0.40;0.30;;;;;;;8.35;100.00;100966.44;5032806;28;20447;-72
2021/11/05 07:51:15;;;;;;;0.40;0.30;;;;;;;8.41;100.00;100969.13;5033063;28;20454;-72
2021/11/05 07:53:41;;;;;;;0.40;0.30;;;;;;;8.43;100.00;100981.28;5032856;28;20490;-71
2021/11/05 07:56:08;;;;;;;0.40;0.30;;;;;;;8.50;100.00;100987.22;5032453;28;20471;-72
2021/11/05 07:58:34;;;;;;;0.40;0.30;;;;;;;8.54;100.00;100984.75;5032731;28;20956;-72
2021/11/05 08:01:01;;;;;;;0.40;0.20;;;;;;;8.53;100.00;100996.63;5032960;28;20450;-72
2021/11/05 08:03:27;;;;;;;0.50;0.30;;;;;;;8.52;100.00;100995.81;5032603;28;20957;-72
2021/11/05 08:05:55;;;;;;;1.17;1.17;;;;;;;8.53;100.00;100997.44;5032553;28;20474;-72
2021/11/05 08:08:21;;;;;;;0.40;0.30;;;;;;;8.57;100.00;100998.50;5032912;28;20449;-72
2021/11/05 08:10:48;;;;;;;0.40;0.30;;;;;;;8.58;100.00;101005.50;5032450;28;20955;-72
2021/11/05 08:13:15;;;;;;;0.40;0.30;;;;;;;8.60;100.00;101010.66;5032541;28;20793;-72
2021/11/05 08:15:42;;;;;;;0.40;0.20;;;;;;;8.62;100.00;101013.88;5032836;28;20462;-72
2021/11/05 08:18:09;;;;;;;0.40;0.20;;;;;;;8.58;100.00;101018.19;5032865;28;20447;-71
2021/11/05 08:20:35;;;;;;;0.40;0.20;;;;;;;8.54;100.00;101011.75;5032877;28;20474;-72
2021/11/05 08:23:05;;;;;;;0.40;0.30;;;;;;;8.60;100.00;101018.75;5032502;28;20962;-72
2021/11/05 08:25:31;;;;;;;0.40;0.30;;;;;;;8.58;100.00;101021.72;5032657;28;20466;-72
2021/11/05 08:27:58;;;;;;;0.40;0.20;;;;;;;8.61;100.00;101024.97;5032788;28;20458;-71
2021/11/05 08:30:26;;;;;;;0.40;0.30;;;;;;;8.55;100.00;101029.56;5032776;28;20450;-71
2021/11/05 08:32:55;;;;;;;0.40;0.27;;;;;;;8.61;100.00;101036.56;5032751;28;20450;-71
2021/11/05 08:35:24;;;;;;;0.93;0.93;;;;;;;8.61;100.00;101041.16;5032534;28;20490;-72
2021/11/05 08:37:50;;;;;;;0.40;0.30;;;;;;;8.67;100.00;101048.13;5035797;28;20445;-72
2021/11/05 08:40:19;;;;;;;0.40;0.30;;;;;;;8.64;100.00;101051.41;5036437;28;20447;-71
2021/11/05 08:42:46;;;;;;;0.40;0.30;;;;;;;8.65;100.00;101056.53;5036588;28;20439;-71
2021/11/05 08:45:12;;;;;;;0.40;0.30;;;;;;;8.65;100.00;101061.94;5036243;28;20585;-71
2021/11/05 08:47:40;;;;;;;0.40;0.30;;;;;;;8.67;100.00;101065.16;5036210;28;20450;-71
2021/11/05 08:50:12;;;;;;;0.40;0.30;;;;;;;8.61;100.00;101066.25;5036187;28;20546;-72
2021/11/05 08:52:39;;;;;;;0.40;0.30;;;;;;;8.68;100.00;101068.69;5035905;28;20901;-71
2021/11/05 08:55:07;;;;;;;0.40;0.30;;;;;;;8.69;100.00;101073.81;5035474;28;20502;-71
2021/11/05 08:57:36;;;;;;;0.40;0.30;;;;;;;8.69;100.00;101081.91;5035891;28;20457;-71
2021/11/05 09:00:07;;;;;;;0.40;0.30;;;;;;;8.68;100.00;101087.59;5036064;28;20458;-71
2021/11/05 09:02:34;;;;;;;0.40;0.30;;;;;;;8.73;100.00;101085.66;5035981;28;20443;-71
2021/11/05 09:05:00;;;;;;;0.40;0.30;;;;;;;8.71;100.00;101093.22;5035806;28;20462;-72
2021/11/05 09:07:28;;;;;;;0.40;0.30;;;;;;;8.74;100.00;101087.28;5035845;28;20869;-71
2021/11/05 09:09:55;;;;;;;0.40;0.30;;;;;;;8.69;100.00;101094.59;5035846;28;20478;-70
2021/11/05 09:12:21;;;;;;;0.40;0.30;;;;;;;8.72;100.00;101094.84;5035755;28;20450;-70
2021/11/05 09:14:50;;;;;;;0.40;0.30;;;;;;;8.75;100.00;101094.28;5035271;28;21012;-71
2021/11/05 09:17:16;;;;;;;0.40;0.30;;;;;;;8.84;100.00;101099.94;5035688;28;20447;-71
2021/11/05 09:19:43;;;;;;;0.40;0.30;;;;;;;8.82;100.00;101110.22;5035415;28;20937;-71
2021/11/05 09:22:10;;;;;;;0.40;0.30;;;;;;;8.84;100.00;101110.72;5035271;28;20790;-70
2021/11/05 09:24:37;;;;;;;0.40;0.30;;;;;;;8.89;100.00;101107.19;5035467;28;20439;-70
2021/11/05 09:27:04;;;;;;;0.40;0.30;;;;;;;8.88;100.00;101116.41;5035488;28;20451;-70
2021/11/05 09:29:30;;;;;;;0.40;0.30;;;;;;;8.96;100.00;101122.03;5035442;28;20458;-71
2021/11/05 09:31:58;;;;;;;0.40;0.30;;;;;;;9.02;100.00;101126.31;5035472;28;20440;-71
2021/11/05 09:34:24;;;;;;;0.40;0.30;;;;;;;9.09;100.00;101131.44;5035292;28;20483;-71
2021/11/05 09:36:51;;;;;;;0.40;0.30;;;;;;;9.08;100.00;101132.53;5035278;28;20467;-71
2021/11/05 09:39:17;;;;;;;0.40;0.30;;;;;;;9.11;100.00;101140.06;5035222;28;20451;-71
2021/11/05 09:41:43;;;;;;;0.57;0.57;;;;;;;9.10;100.00;101144.66;5035106;28;20454;-71
2021/11/05 09:44:10;;;;;;;0.50;0.47;;;;;;;9.18;100.00;101147.88;5034830;28;20826;-71
2021/11/05 09:46:37;;;;;;;0.40;0.30;;;;;;;9.16;100.00;101156.25;5034784;28;20525;-71
2021/11/05 09:49:05;;;;;;;0.40;0.30;;;;;;;9.17;100.00;101155.19;5033862;28;20937;-71
2021/11/05 09:51:32;;;;;;;0.40;0.30;;;;;;;9.23;100.00;101164.06;5034725;28;20963;-71
2021/11/05 09:54:02;;;;;;;0.40;0.30;;;;;;;9.30;100.00;101167.28;5034858;28;20483;-71
2021/11/05 09:56:30;;;;;;;0.40;0.30;;;;;;;9.31;100.00;101177.03;5034865;28;20926;-70
2021/11/05 09:58:56;;;;;;;0.40;0.30;;;;;;;9.29;100.00;101182.69;5034837;28;20454;-70
2021/11/05 10:01:23;;;;;;;0.40;0.30;;;;;;;9.32;100.00;101189.44;5034929;28;20469;-71
2021/11/05 10:03:49;;;;;;;0.40;0.30;;;;;;;9.37;100.00;101185.91;5034526;28;20809;-70
2021/11/05 10:06:19;;;;;;;0.40;0.30;;;;;;;9.39;100.00;101189.16;5034745;28;20466;-70
2021/11/05 10:08:51;;;;;;;0.40;0.30;;;;;;;9.32;100.00;101200.25;5034459;28;20866;-70
2021/11/05 10:11:24;;;;;;;0.40;0.30;;;;;;;9.32;100.00;101201.06;5034690;28;20810;-70
2021/11/05 10:13:51;;;;;;;0.40;0.30;;;;;;;9.34;100.00;101206.19;5034476;28;20802;-70
2021/11/05 10:16:20;;;;;;;0.40;0.30;;;;;;;9.34;100.00;101209.72;5034478;28;20514;-70
2021/11/05 10:18:59;;;;;;;0.40;0.30;;;;;;;9.31;100.00;101212.16;5034510;28;20478;-70
2021/11/05 10:21:32;;;;;;;0.40;0.30;;;;;;;9.37;100.00;101224.56;5034546;28;20498;-73
2021/11/05 10:24:07;;;;;;;0.40;0.30;;;;;;;9.38;100.00;101225.38;5034205;28;20942;-71
2021/11/05 10:26:35;;;;;;;0.40;0.30;;;;;;;9.40;100.00;101218.59;5034399;28;20498;-71
2021/11/05 10:29:03;;;;;;;0.40;0.30;;;;;;;9.34;100.00;101231.34;5034601;28;20431;-70
2021/11/05 10:31:30;;;;;;;1.63;1.53;;;;;;;9.35;100.00;101230.25;5034301;28;20455;-71
2021/11/05 10:33:57;;;;;;;0.40;0.30;;;;;;;9.35;100.00;101230.25;5034121;28;20451;-70
2021/11/05 10:36:27;;;;;;;0.40;0.30;;;;;;;9.38;100.00;101231.56;5034106;28;20462;-70
2021/11/05 10:38:58;;;;;;;0.40;0.30;;;;;;;9.40;100.00;101239.44;5034245;28;20451;-70
2021/11/05 10:41:26;;;;;;;0.40;0.30;;;;;;;9.33;100.00;101240.53;5034199;28;20497;-71
2021/11/05 10:43:55;;;;;;;0.40;0.30;;;;;;;9.32;100.00;101247.00;5034051;28;20450;-71
2021/11/05 10:46:29;;;;;;;0.40;0.30;;;;;;;9.33;100.00;101250.53;5033962;28;20479;-70
2021/11/05 10:48:58;;;;;;;0.40;0.30;;;;;;;9.35;100.00;101251.06;5034041;28;20441;-71
2021/11/05 10:51:26;;;;;;;0.40;0.30;;;;;;;9.37;100.00;101254.28;5033914;28;20446;-70
2021/11/05 10:53:55;;;;;;;0.40;0.30;;;;;;;9.46;100.00;101259.94;5033628;28;20442;-70
2021/11/05 10:56:25;;;;;;;0.40;0.30;;;;;;;9.51;100.00;101262.63;5033362;28;20988;-70
2021/11/05 10:58:57;;;;;;;0.40;0.30;;;;;;;9.56;100.00;101268.84;5033651;28;21005;-70
2021/11/05 11:01:26;;;;;;;0.40;0.27;;;;;;;9.62;100.00;101272.31;5033732;28;20525;-71
2021/11/05 11:03:54;;;;;;;0.77;0.77;;;;;;;9.66;100.00;101276.09;5033713;28;20465;-71
2021/11/05 11:06:23;;;;;;;0.40;0.30;;;;;;;9.66;100.00;101267.97;5033622;28;20471;-71
2021/11/05 11:08:51;;;;;;;0.40;0.30;;;;;;;9.70;100.00;101271.75;5033613;28;20450;-71
2021/11/05 11:11:22;;;;;;;0.40;0.30;;;;;;;9.73;100.00;101282.00;5032894;28;20450;-70
2021/11/05 11:13:50;;;;;;;0.40;0.27;;;;;;;9.73;100.00;101276.59;5033430;28;20432;-71
2021/11/05 11:16:19;;;;;;;0.40;0.30;;;;;;;9.74;100.00;101278.22;5034689;28;20487;-71
2021/11/05 11:18:48;;;;;;;0.40;0.30;;;;;;;9.84;100.00;101282.78;5033447;28;20447;-71
2021/11/05 11:21:16;;;;;;;0.40;0.30;;;;;;;9.82;100.00;101291.16;5033475;28;20793;-71
2021/11/05 11:23:42;;;;;;;0.40;0.30;;;;;;;9.88;100.00;101293.84;5033079;28;20443;-70